Tropical Cyclones
[Index]
Main Index Home Page Stock Weather Photos Extreme Storms Discussion Storm News and Storm Chasing Reports Tropical Cyclones / Hurricanes / Typhoons Weather Data and Links Wild Fires / Bushfires Weather Observation Techniques Weather Picture Catalogue Tornado Pictures and Reports Stock Video Footage and DVDs for sale
Season 2008-2009 Tropical Cyclone DONGO Track Map
Season 2008-2009 Summaries: [BoM-AU] [JTWC-AU] [JTWC-SIO] [JTWC-SPAC] [JTWC-SH]
<<- Previous TC | JTWC 2008-2009 Season | Next TC ->>

click for intensity scale information  Lat/long Grid: Show Hide

 Date Labels: Show Hide

Joint Typhoon Warning Centre Cyclone Data

Name: DONGO

08 Jan 2009 06:00 UTC to 13 Jan 2009 12:00 UTC

    date/time    lat    long     hPa   cat  kts
2009-01-08 06   14.1    70.7    1004         25          
2009-01-08 12   15.0    70.6    1004         25          
2009-01-08 18   15.7    70.4    1004         25          
2009-01-08 21   16.1    70.0    1004         25          
2009-01-09 00   16.2    69.3    1004         25          
2009-01-09 06   16.7    68.5    1000         30          
2009-01-09 12   17.1    68.0    1000         30          
2009-01-09 18   17.4    67.6     996         35          
2009-01-10 00   17.8    67.3     993    1    40          
2009-01-10 06   18.2    67.3     993    1    40          
2009-01-10 12   18.7    67.5     989    1    45          
2009-01-10 18   19.5    67.9     989    1    45          
2009-01-11 00   20.6    68.3     982    2    55          
2009-01-11 00   20.6    68.3     982    2    55          
2009-01-11 06   21.8    68.9     982    2    55          
2009-01-11 06   21.8    68.9     982    2    55          
2009-01-11 12   23.0    69.6     982    2    55          
2009-01-11 18   24.4    70.1     982    2    55          
2009-01-12 00   26.8    70.1     993    1    40          
2009-01-12 06   28.2    69.8     996         35          
2009-01-12 12   29.1    70.3    1000         30          
2009-01-12 18   30.1    71.4    1000         30          
2009-01-13 00   31.1    72.5    1000         30          
2009-01-13 06   31.9    73.3    1004         25          
2009-01-13 12   33.0    74.7    1004         25          
Winds are 1-min average.

Tropical cyclone tracks developed by Michael Bath using data from the Joint Typhoon Warning Centre Best Tracks and Google Maps.


[Australian Severe Weather index] [Copyright Notice] [Email Contacts] [Search This Site] [Privacy Policy]
Document: tropical_cyclone_dongo.htm Updated: 28 June 2017